Stephen L. — WDE7070 — position and weather

sailwx.info

Track history (hours):
 
Tides and Currents Weather Stations Pressure Air Temp Water Temp Dewpoint Dewpoint Depression Visibility Wind Speed Wind Dir Waves Ship Positions

Stephen L.

Owner: TRIPLE S MARINE, LLC, MORGAN CITY, LA. More information available from US FCC via Universal Licensing System and Coast Guard Vessel Documentation Center.

Last reported at 2016-Jul-03 03:33 UTC. Time now 2016-Jul-25 20:06 UTC.
Position N 29°56' W 090°08'.
Warning: this ship's position is 22 days out of date.

Length 20 m.

Type: Ship. MMSI: 367388580.

Date/timePositionNaut miles runAvg speedWind from/ knotsBaromVisibWave heightAir tempDewpointWater temp
2016-Jul-03 03:33N 29°56' W 090°08'3 3.5
2016-Jul-03 02:33N 29°54' W 090°05'2 2.0
2016-Jul-03 01:33N 29°52' W 090°04'3 2.9
2016-Jul-03 00:33N 29°50' W 090°04'1 1.4
2016-Jul-02 23:34N 29°50' W 090°02'0 0.2
2016-Jul-02 22:33N 29°50' W 090°02'0 0.0
2016-Jul-02 21:33N 29°50' W 090°02'0 0.0
2016-Jul-02 20:33N 29°50' W 090°02'0 0.0
2016-Jul-02 19:33N 29°50' W 090°02'0 0.0
2016-Jul-02 18:33N 29°50' W 090°02'0 0.0
2016-Jul-02 17:33N 29°50' W 090°02'0 0.0
2016-Jul-02 16:32N 29°50' W 090°02'0 0.0
2016-Jul-02 15:33N 29°50' W 090°02'0 0.0
2016-Jul-02 14:28N 29°50' W 090°02'0 0.0
2016-Jul-02 13:32N 29°50' W 090°02'0 0.0
2016-Jul-02 12:33N 29°50' W 090°02'0 0.0
2016-Jul-02 11:29N 29°50' W 090°02'2 2.3
2016-Jul-02 10:27N 29°52' W 090°01'4 1.6
2016-Jul-02 08:07N 29°55' W 089°58'4 7.7
2016-Jul-02 07:33N 29°57' W 090°02'5 5.4
2016-Jul-02 06:33N 29°57' W 090°09'  
Track history (hours):
 
Tides and Currents Weather Stations Pressure Air Temp Water Temp Dewpoint Dewpoint Depression Visibility Wind Speed Wind Dir Waves Ship Positions

Stephen L.

Owner: TRIPLE S MARINE, LLC, MORGAN CITY, LA. More information available from US FCC via Universal Licensing System and Coast Guard Vessel Documentation Center.

Last reported at 2016-Jul-03 03:33 UTC. Time now 2016-Jul-25 20:06 UTC.
Position N 29°56' W 090°08'.
Warning: this ship's position is 22 days out of date.

Length 20 m.

Type: Ship. MMSI: 367388580.

Date/timePositionNaut miles runAvg speedWind from/ knotsBaromVisibWave heightAir tempDewpointWater temp
2016-Jul-03 03:33N 29°56' W 090°08'3 3.5
2016-Jul-03 02:33N 29°54' W 090°05'2 2.0
2016-Jul-03 01:33N 29°52' W 090°04'3 2.9
2016-Jul-03 00:33N 29°50' W 090°04'1 1.4
2016-Jul-02 23:34N 29°50' W 090°02'0 0.2
2016-Jul-02 22:33N 29°50' W 090°02'0 0.0
2016-Jul-02 21:33N 29°50' W 090°02'0 0.0
2016-Jul-02 20:33N 29°50' W 090°02'0 0.0
2016-Jul-02 19:33N 29°50' W 090°02'0 0.0
2016-Jul-02 18:33N 29°50' W 090°02'0 0.0
2016-Jul-02 17:33N 29°50' W 090°02'0 0.0
2016-Jul-02 16:32N 29°50' W 090°02'0 0.0
2016-Jul-02 15:33N 29°50' W 090°02'0 0.0
2016-Jul-02 14:28N 29°50' W 090°02'0 0.0
2016-Jul-02 13:32N 29°50' W 090°02'0 0.0
2016-Jul-02 12:33N 29°50' W 090°02'0 0.0
2016-Jul-02 11:29N 29°50' W 090°02'2 2.3
2016-Jul-02 10:27N 29°52' W 090°01'4 1.6
2016-Jul-02 08:07N 29°55' W 089°58'4 7.7
2016-Jul-02 07:33N 29°57' W 090°02'5 5.4
2016-Jul-02 06:33N 29°57' W 090°09'  

Dump ship's entire track history